sensor_id;sensor_type;location;lat;lon;timestamp;temperature;humidity
51021;DHT22;38907;45.562;8.856;2023-11-19T00:01:02;8.20;99.90
51021;DHT22;38907;45.562;8.856;2023-11-19T00:06:06;8.30;99.90
51021;DHT22;38907;45.562;8.856;2023-11-19T00:11:08;8.40;99.90
51021;DHT22;38907;45.562;8.856;2023-11-19T00:16:11;8.50;99.90
51021;DHT22;38907;45.562;8.856;2023-11-19T00:21:13;8.20;99.90
51021;DHT22;38907;45.562;8.856;2023-11-19T00:26:15;8.00;99.90
51021;DHT22;38907;45.562;8.856;2023-11-19T00:31:18;7.90;99.90
51021;DHT22;38907;45.562;8.856;2023-11-19T00:36:20;8.00;99.90
51021;DHT22;38907;45.562;8.856;2023-11-19T00:46:26;8.00;99.90
51021;DHT22;38907;45.562;8.856;2023-11-19T00:51:28;7.80;99.90
51021;DHT22;38907;45.562;8.856;2023-11-19T00:56:31;8.00;99.90
51021;DHT22;38907;45.562;8.856;2023-11-19T01:01:34;7.80;99.90
51021;DHT22;38907;45.562;8.856;2023-11-19T01:06:36;7.30;99.90
51021;DHT22;38907;45.562;8.856;2023-11-19T01:11:38;7.60;99.90
51021;DHT22;38907;45.562;8.856;2023-11-19T01:16:41;7.60;99.90
51021;DHT22;38907;45.562;8.856;2023-11-19T01:21:43;7.80;99.90
51021;DHT22;38907;45.562;8.856;2023-11-19T01:26:46;8.00;99.90
51021;DHT22;38907;45.562;8.856;2023-11-19T01:31:49;7.90;99.90
51021;DHT22;38907;45.562;8.856;2023-11-19T01:36:51;7.60;99.90
51021;DHT22;38907;45.562;8.856;2023-11-19T01:41:53;7.40;99.90
51021;DHT22;38907;45.562;8.856;2023-11-19T01:46:57;7.30;99.90
51021;DHT22;38907;45.562;8.856;2023-11-19T01:51:59;7.10;99.90
51021;DHT22;38907;45.562;8.856;2023-11-19T01:57:01;7.40;99.90
51021;DHT22;38907;45.562;8.856;2023-11-19T02:02:05;7.60;99.90
51021;DHT22;38907;45.562;8.856;2023-11-19T02:07:08;7.60;99.90
51021;DHT22;38907;45.562;8.856;2023-11-19T02:12:11;7.40;99.90
51021;DHT22;38907;45.562;8.856;2023-11-19T02:17:30;7.30;99.90
51021;DHT22;38907;45.562;8.856;2023-11-19T02:22:32;6.90;99.90
51021;DHT22;38907;45.562;8.856;2023-11-19T02:27:50;6.80;99.90
51021;DHT22;38907;45.562;8.856;2023-11-19T02:32:52;7.00;99.90
51021;DHT22;38907;45.562;8.856;2023-11-19T02:37:55;7.00;99.90
51021;DHT22;38907;45.562;8.856;2023-11-19T02:42:58;6.70;99.90
51021;DHT22;38907;45.562;8.856;2023-11-19T02:48:00;6.50;99.90
51021;DHT22;38907;45.562;8.856;2023-11-19T02:53:03;6.80;99.90
51021;DHT22;38907;45.562;8.856;2023-11-19T02:58:06;6.70;99.90
51021;DHT22;38907;45.562;8.856;2023-11-19T03:03:20;6.50;99.90
51021;DHT22;38907;45.562;8.856;2023-11-19T03:08:23;6.30;99.90
51021;DHT22;38907;45.562;8.856;2023-11-19T03:13:26;6.20;99.90
51021;DHT22;38907;45.562;8.856;2023-11-19T03:18:28;6.20;99.90
51021;DHT22;38907;45.562;8.856;2023-11-19T03:23:30;6.30;99.90
51021;DHT22;38907;45.562;8.856;2023-11-19T03:28:33;6.40;99.90
51021;DHT22;38907;45.562;8.856;2023-11-19T03:33:35;6.50;99.90
51021;DHT22;38907;45.562;8.856;2023-11-19T03:38:37;6.40;99.90
51021;DHT22;38907;45.562;8.856;2023-11-19T03:43:44;6.30;99.90
51021;DHT22;38907;45.562;8.856;2023-11-19T03:48:46;6.40;99.90
51021;DHT22;38907;45.562;8.856;2023-11-19T03:53:48;6.40;99.90
51021;DHT22;38907;45.562;8.856;2023-11-19T03:58:51;6.30;99.90
51021;DHT22;38907;45.562;8.856;2023-11-19T04:03:53;6.20;99.90
51021;DHT22;38907;45.562;8.856;2023-11-19T04:08:56;5.90;99.90
51021;DHT22;38907;45.562;8.856;2023-11-19T04:13:59;6.10;99.90
51021;DHT22;38907;45.562;8.856;2023-11-19T04:19:01;6.10;99.90
51021;DHT22;38907;45.562;8.856;2023-11-19T04:24:03;6.10;99.90
51021;DHT22;38907;45.562;8.856;2023-11-19T04:29:06;6.30;99.90
51021;DHT22;38907;45.562;8.856;2023-11-19T04:34:09;6.40;99.90
51021;DHT22;38907;45.562;8.856;2023-11-19T04:39:11;6.50;99.90
51021;DHT22;38907;45.562;8.856;2023-11-19T04:44:16;6.30;99.90
51021;DHT22;38907;45.562;8.856;2023-11-19T04:49:18;6.10;99.90
51021;DHT22;38907;45.562;8.856;2023-11-19T04:54:20;5.90;99.90
51021;DHT22;38907;45.562;8.856;2023-11-19T04:59:23;6.10;99.90
51021;DHT22;38907;45.562;8.856;2023-11-19T05:04:25;6.10;99.90
51021;DHT22;38907;45.562;8.856;2023-11-19T05:09:27;6.00;99.90
51021;DHT22;38907;45.562;8.856;2023-11-19T05:14:30;6.20;99.90
51021;DHT22;38907;45.562;8.856;2023-11-19T05:19:31;6.00;99.90
51021;DHT22;38907;45.562;8.856;2023-11-19T05:24:33;6.00;99.90
51021;DHT22;38907;45.562;8.856;2023-11-19T05:29:37;6.20;99.90
51021;DHT22;38907;45.562;8.856;2023-11-19T05:34:40;6.20;99.90
51021;DHT22;38907;45.562;8.856;2023-11-19T05:39:42;5.60;99.90
51021;DHT22;38907;45.562;8.856;2023-11-19T05:44:45;5.90;99.90
51021;DHT22;38907;45.562;8.856;2023-11-19T05:49:47;5.90;99.90
51021;DHT22;38907;45.562;8.856;2023-11-19T05:54:49;5.80;99.90
51021;DHT22;38907;45.562;8.856;2023-11-19T05:59:53;5.90;99.90
51021;DHT22;38907;45.562;8.856;2023-11-19T06:04:55;6.10;99.90
51021;DHT22;38907;45.562;8.856;2023-11-19T06:09:57;6.20;99.90
51021;DHT22;38907;45.562;8.856;2023-11-19T06:15:00;5.90;99.90
51021;DHT22;38907;45.562;8.856;2023-11-19T06:20:03;5.80;99.90
51021;DHT22;38907;45.562;8.856;2023-11-19T06:25:06;5.60;99.90
51021;DHT22;38907;45.562;8.856;2023-11-19T06:30:10;5.70;99.90
51021;DHT22;38907;45.562;8.856;2023-11-19T06:35:13;5.80;99.90
51021;DHT22;38907;45.562;8.856;2023-11-19T06:40:15;6.00;99.90
51021;DHT22;38907;45.562;8.856;2023-11-19T06:45:18;5.80;99.90
51021;DHT22;38907;45.562;8.856;2023-11-19T06:50:20;6.00;99.90
51021;DHT22;38907;45.562;8.856;2023-11-19T06:55:22;6.10;99.90
51021;DHT22;38907;45.562;8.856;2023-11-19T07:00:25;6.20;99.90
51021;DHT22;38907;45.562;8.856;2023-11-19T07:05:27;6.10;99.90
51021;DHT22;38907;45.562;8.856;2023-11-19T07:10:30;5.90;99.90
51021;DHT22;38907;45.562;8.856;2023-11-19T07:15:33;6.10;99.90
51021;DHT22;38907;45.562;8.856;2023-11-19T07:20:35;6.10;99.90
51021;DHT22;38907;45.562;8.856;2023-11-19T07:25:38;6.30;99.90
51021;DHT22;38907;45.562;8.856;2023-11-19T07:30:41;6.30;99.90
51021;DHT22;38907;45.562;8.856;2023-11-19T07:35:43;6.70;99.90
51021;DHT22;38907;45.562;8.856;2023-11-19T07:40:46;6.80;99.90
51021;DHT22;38907;45.562;8.856;2023-11-19T07:45:49;7.00;99.90
51021;DHT22;38907;45.562;8.856;2023-11-19T07:50:52;7.20;99.90
51021;DHT22;38907;45.562;8.856;2023-11-19T07:55:53;7.40;99.90
51021;DHT22;38907;45.562;8.856;2023-11-19T08:00:57;7.60;99.90
51021;DHT22;38907;45.562;8.856;2023-11-19T08:05:58;7.90;99.90
51021;DHT22;38907;45.562;8.856;2023-11-19T08:11:00;7.90;99.90
51021;DHT22;38907;45.562;8.856;2023-11-19T08:16:04;7.90;99.90
51021;DHT22;38907;45.562;8.856;2023-11-19T08:21:07;8.10;99.90
51021;DHT22;38907;45.562;8.856;2023-11-19T08:26:09;8.30;99.90
51021;DHT22;38907;45.562;8.856;2023-11-19T08:31:12;8.40;99.90
51021;DHT22;38907;45.562;8.856;2023-11-19T08:36:17;8.70;99.90
51021;DHT22;38907;45.562;8.856;2023-11-19T08:41:19;8.80;99.90
51021;DHT22;38907;45.562;8.856;2023-11-19T08:46:23;9.00;99.90
51021;DHT22;38907;45.562;8.856;2023-11-19T08:51:26;9.20;99.90
51021;DHT22;38907;45.562;8.856;2023-11-19T08:56:28;9.40;99.90
51021;DHT22;38907;45.562;8.856;2023-11-19T09:01:34;9.60;99.90
51021;DHT22;38907;45.562;8.856;2023-11-19T09:06:36;9.80;99.90
51021;DHT22;38907;45.562;8.856;2023-11-19T09:11:38;9.90;99.90
51021;DHT22;38907;45.562;8.856;2023-11-19T09:16:41;10.00;99.90
51021;DHT22;38907;45.562;8.856;2023-11-19T09:21:43;10.10;99.90
51021;DHT22;38907;45.562;8.856;2023-11-19T09:26:45;10.30;99.90
51021;DHT22;38907;45.562;8.856;2023-11-19T09:31:48;10.40;99.90
51021;DHT22;38907;45.562;8.856;2023-11-19T09:36:50;10.60;99.90
51021;DHT22;38907;45.562;8.856;2023-11-19T09:41:52;10.70;99.90
51021;DHT22;38907;45.562;8.856;2023-11-19T09:46:56;10.70;99.90
51021;DHT22;38907;45.562;8.856;2023-11-19T09:51:59;10.70;99.90
51021;DHT22;38907;45.562;8.856;2023-11-19T09:57:02;10.70;99.90
51021;DHT22;38907;45.562;8.856;2023-11-19T10:02:06;10.80;99.90
51021;DHT22;38907;45.562;8.856;2023-11-19T10:07:08;10.80;99.90
51021;DHT22;38907;45.562;8.856;2023-11-19T10:12:10;10.80;99.90
51021;DHT22;38907;45.562;8.856;2023-11-19T10:17:13;10.90;99.90
51021;DHT22;38907;45.562;8.856;2023-11-19T10:22:15;10.90;99.90
51021;DHT22;38907;45.562;8.856;2023-11-19T10:27:18;10.90;99.90
51021;DHT22;38907;45.562;8.856;2023-11-19T10:32:21;10.80;99.90
51021;DHT22;38907;45.562;8.856;2023-11-19T10:37:29;10.90;99.90
51021;DHT22;38907;45.562;8.856;2023-11-19T10:42:32;10.80;99.90
51021;DHT22;38907;45.562;8.856;2023-11-19T10:47:36;10.80;99.90
51021;DHT22;38907;45.562;8.856;2023-11-19T10:52:40;10.90;99.90
51021;DHT22;38907;45.562;8.856;2023-11-19T10:57:43;10.90;99.90
51021;DHT22;38907;45.562;8.856;2023-11-19T11:02:55;10.90;99.90
51021;DHT22;38907;45.562;8.856;2023-11-19T11:07:58;11.00;99.90
51021;DHT22;38907;45.562;8.856;2023-11-19T11:13:03;11.10;99.90
51021;DHT22;38907;45.562;8.856;2023-11-19T11:18:08;11.10;99.90
51021;DHT22;38907;45.562;8.856;2023-11-19T11:23:39;11.10;99.90
51021;DHT22;38907;45.562;8.856;2023-11-19T11:28:54;11.20;99.90
51021;DHT22;38907;45.562;8.856;2023-11-19T11:34:24;11.20;99.90
51021;DHT22;38907;45.562;8.856;2023-11-19T11:39:32;11.30;99.90
51021;DHT22;38907;45.562;8.856;2023-11-19T11:44:58;11.30;99.90
51021;DHT22;38907;45.562;8.856;2023-11-19T11:50:10;11.30;99.90
51021;DHT22;38907;45.562;8.856;2023-11-19T11:55:13;11.50;99.90
51021;DHT22;38907;45.562;8.856;2023-11-19T12:00:21;11.70;99.90
51021;DHT22;38907;45.562;8.856;2023-11-19T12:05:25;11.80;99.90
51021;DHT22;38907;45.562;8.856;2023-11-19T12:10:29;11.90;99.90
51021;DHT22;38907;45.562;8.856;2023-11-19T12:15:32;12.00;99.90
51021;DHT22;38907;45.562;8.856;2023-11-19T12:20:36;12.20;99.90
51021;DHT22;38907;45.562;8.856;2023-11-19T12:25:40;12.20;99.90
51021;DHT22;38907;45.562;8.856;2023-11-19T12:30:42;12.30;99.90
51021;DHT22;38907;45.562;8.856;2023-11-19T12:35:46;12.40;99.90
51021;DHT22;38907;45.562;8.856;2023-11-19T12:41:02;12.40;99.90
51021;DHT22;38907;45.562;8.856;2023-11-19T12:46:16;12.60;99.90
51021;DHT22;38907;45.562;8.856;2023-11-19T12:51:20;12.70;99.90
51021;DHT22;38907;45.562;8.856;2023-11-19T12:56:22;12.80;99.90
51021;DHT22;38907;45.562;8.856;2023-11-19T13:01:24;12.70;99.90
51021;DHT22;38907;45.562;8.856;2023-11-19T13:06:27;12.70;99.90
51021;DHT22;38907;45.562;8.856;2023-11-19T13:16:30;12.90;99.90
51021;DHT22;38907;45.562;8.856;2023-11-19T13:21:33;13.00;99.90
51021;DHT22;38907;45.562;8.856;2023-11-19T13:26:35;13.00;99.90
51021;DHT22;38907;45.562;8.856;2023-11-19T13:31:37;13.00;99.90
51021;DHT22;38907;45.562;8.856;2023-11-19T13:36:40;13.10;99.90
51021;DHT22;38907;45.562;8.856;2023-11-19T13:41:42;13.10;99.90
51021;DHT22;38907;45.562;8.856;2023-11-19T13:46:45;13.10;99.90
51021;DHT22;38907;45.562;8.856;2023-11-19T13:51:48;13.30;99.90
51021;DHT22;38907;45.562;8.856;2023-11-19T13:56:50;13.30;99.90
51021;DHT22;38907;45.562;8.856;2023-11-19T14:01:56;13.20;99.90
51021;DHT22;38907;45.562;8.856;2023-11-19T14:06:59;13.20;99.90
51021;DHT22;38907;45.562;8.856;2023-11-19T14:12:01;13.20;99.90
51021;DHT22;38907;45.562;8.856;2023-11-19T14:17:04;13.20;99.90
51021;DHT22;38907;45.562;8.856;2023-11-19T14:22:07;13.20;99.90
51021;DHT22;38907;45.562;8.856;2023-11-19T14:27:09;13.10;99.90
51021;DHT22;38907;45.562;8.856;2023-11-19T14:32:11;13.10;99.90
51021;DHT22;38907;45.562;8.856;2023-11-19T14:37:14;13.10;99.90
51021;DHT22;38907;45.562;8.856;2023-11-19T14:42:16;13.10;99.90
51021;DHT22;38907;45.562;8.856;2023-11-19T14:47:18;13.10;99.90
51021;DHT22;38907;45.562;8.856;2023-11-19T14:52:21;13.00;99.90
51021;DHT22;38907;45.562;8.856;2023-11-19T14:57:23;13.00;99.90
51021;DHT22;38907;45.562;8.856;2023-11-19T15:02:25;12.90;99.90
51021;DHT22;38907;45.562;8.856;2023-11-19T15:07:28;12.80;99.90
51021;DHT22;38907;45.562;8.856;2023-11-19T15:12:30;12.70;99.90
51021;DHT22;38907;45.562;8.856;2023-11-19T15:17:32;12.60;99.90
51021;DHT22;38907;45.562;8.856;2023-11-19T15:22:35;12.70;99.90
51021;DHT22;38907;45.562;8.856;2023-11-19T15:27:37;12.50;99.90
51021;DHT22;38907;45.562;8.856;2023-11-19T15:32:38;12.40;99.90
51021;DHT22;38907;45.562;8.856;2023-11-19T15:37:43;12.30;99.90
51021;DHT22;38907;45.562;8.856;2023-11-19T15:42:45;12.30;99.90
51021;DHT22;38907;45.562;8.856;2023-11-19T15:47:49;12.10;99.90
51021;DHT22;38907;45.562;8.856;2023-11-19T15:52:52;12.00;99.90
51021;DHT22;38907;45.562;8.856;2023-11-19T15:57:54;11.90;99.90
51021;DHT22;38907;45.562;8.856;2023-11-19T16:02:56;11.80;99.90
51021;DHT22;38907;45.562;8.856;2023-11-19T16:07:59;11.70;99.90
51021;DHT22;38907;45.562;8.856;2023-11-19T16:13:01;11.60;99.90
51021;DHT22;38907;45.562;8.856;2023-11-19T16:18:03;11.40;99.90
51021;DHT22;38907;45.562;8.856;2023-11-19T16:23:06;11.40;99.90
51021;DHT22;38907;45.562;8.856;2023-11-19T16:28:08;11.40;99.90
51021;DHT22;38907;45.562;8.856;2023-11-19T16:33:10;11.30;99.90
51021;DHT22;38907;45.562;8.856;2023-11-19T16:38:13;11.00;99.90
51021;DHT22;38907;45.562;8.856;2023-11-19T16:43:15;10.90;99.90
51021;DHT22;38907;45.562;8.856;2023-11-19T16:48:17;11.00;99.90
51021;DHT22;38907;45.562;8.856;2023-11-19T16:53:20;10.90;99.90
51021;DHT22;38907;45.562;8.856;2023-11-19T16:58:22;10.90;99.90
51021;DHT22;38907;45.562;8.856;2023-11-19T17:03:24;10.80;99.90
51021;DHT22;38907;45.562;8.856;2023-11-19T17:08:27;10.60;99.90
51021;DHT22;38907;45.562;8.856;2023-11-19T17:13:32;10.50;99.90
51021;DHT22;38907;45.562;8.856;2023-11-19T17:18:34;10.40;99.90
51021;DHT22;38907;45.562;8.856;2023-11-19T17:23:39;10.30;99.90
51021;DHT22;38907;45.562;8.856;2023-11-19T17:28:41;10.20;99.90
51021;DHT22;38907;45.562;8.856;2023-11-19T17:33:43;10.10;99.90
51021;DHT22;38907;45.562;8.856;2023-11-19T17:38:47;10.00;99.90
51021;DHT22;38907;45.562;8.856;2023-11-19T17:43:49;9.90;99.90
51021;DHT22;38907;45.562;8.856;2023-11-19T17:48:51;10.10;99.90
51021;DHT22;38907;45.562;8.856;2023-11-19T17:53:54;9.90;99.90
51021;DHT22;38907;45.562;8.856;2023-11-19T17:58:56;9.80;99.90
51021;DHT22;38907;45.562;8.856;2023-11-19T18:03:58;9.90;99.90
51021;DHT22;38907;45.562;8.856;2023-11-19T18:09:01;9.80;99.90
51021;DHT22;38907;45.562;8.856;2023-11-19T18:14:03;9.60;99.90
51021;DHT22;38907;45.562;8.856;2023-11-19T18:19:05;9.60;99.90
51021;DHT22;38907;45.562;8.856;2023-11-19T18:24:09;9.80;99.90
51021;DHT22;38907;45.562;8.856;2023-11-19T18:29:10;9.70;99.90
51021;DHT22;38907;45.562;8.856;2023-11-19T18:34:13;9.50;99.90
51021;DHT22;38907;45.562;8.856;2023-11-19T18:39:16;9.50;99.90
51021;DHT22;38907;45.562;8.856;2023-11-19T18:44:18;9.50;99.90
51021;DHT22;38907;45.562;8.856;2023-11-19T18:49:20;9.40;99.90
51021;DHT22;38907;45.562;8.856;2023-11-19T18:54:23;9.20;99.90
51021;DHT22;38907;45.562;8.856;2023-11-19T18:59:25;9.00;99.90
51021;DHT22;38907;45.562;8.856;2023-11-19T19:04:27;9.10;99.90
51021;DHT22;38907;45.562;8.856;2023-11-19T19:09:30;9.10;99.90
51021;DHT22;38907;45.562;8.856;2023-11-19T19:14:32;9.10;99.90
51021;DHT22;38907;45.562;8.856;2023-11-19T19:19:34;9.30;99.90
51021;DHT22;38907;45.562;8.856;2023-11-19T19:24:37;9.20;99.90
51021;DHT22;38907;45.562;8.856;2023-11-19T19:29:39;9.30;99.90
51021;DHT22;38907;45.562;8.856;2023-11-19T19:34:42;9.20;99.90
51021;DHT22;38907;45.562;8.856;2023-11-19T19:39:45;9.00;99.90
51021;DHT22;38907;45.562;8.856;2023-11-19T19:44:47;8.90;99.90
51021;DHT22;38907;45.562;8.856;2023-11-19T19:49:49;8.90;99.90
51021;DHT22;38907;45.562;8.856;2023-11-19T19:54:52;8.60;99.90
51021;DHT22;38907;45.562;8.856;2023-11-19T19:59:54;8.50;99.90
51021;DHT22;38907;45.562;8.856;2023-11-19T20:04:56;8.80;99.90
51021;DHT22;38907;45.562;8.856;2023-11-19T20:09:59;8.70;99.90
51021;DHT22;38907;45.562;8.856;2023-11-19T20:15:01;8.70;99.90
51021;DHT22;38907;45.562;8.856;2023-11-19T20:20:07;8.70;99.90
51021;DHT22;38907;45.562;8.856;2023-11-19T20:25:12;8.50;99.90
51021;DHT22;38907;45.562;8.856;2023-11-19T20:30:14;8.70;99.90
51021;DHT22;38907;45.562;8.856;2023-11-19T20:35:16;8.40;99.90
51021;DHT22;38907;45.562;8.856;2023-11-19T20:40:20;8.60;99.90
51021;DHT22;38907;45.562;8.856;2023-11-19T20:45:22;8.50;99.90
51021;DHT22;38907;45.562;8.856;2023-11-19T20:50:27;8.10;99.90
51021;DHT22;38907;45.562;8.856;2023-11-19T20:55:32;8.00;99.90
51021;DHT22;38907;45.562;8.856;2023-11-19T21:00:33;8.20;99.90
51021;DHT22;38907;45.562;8.856;2023-11-19T21:05:37;8.30;99.90
51021;DHT22;38907;45.562;8.856;2023-11-19T21:10:41;8.50;99.90
51021;DHT22;38907;45.562;8.856;2023-11-19T21:15:43;8.40;99.90
51021;DHT22;38907;45.562;8.856;2023-11-19T21:20:45;8.30;99.90
51021;DHT22;38907;45.562;8.856;2023-11-19T21:25:48;8.50;99.90
51021;DHT22;38907;45.562;8.856;2023-11-19T21:30:50;8.40;99.90
51021;DHT22;38907;45.562;8.856;2023-11-19T21:35:52;8.40;99.90
51021;DHT22;38907;45.562;8.856;2023-11-19T21:40:56;7.80;99.90
51021;DHT22;38907;45.562;8.856;2023-11-19T21:46:00;7.90;99.90
51021;DHT22;38907;45.562;8.856;2023-11-19T21:51:03;7.90;99.90
51021;DHT22;38907;45.562;8.856;2023-11-19T21:56:06;7.70;99.90
51021;DHT22;38907;45.562;8.856;2023-11-19T22:01:08;7.80;99.90
51021;DHT22;38907;45.562;8.856;2023-11-19T22:06:16;7.60;99.90
51021;DHT22;38907;45.562;8.856;2023-11-19T22:11:20;7.30;99.90
51021;DHT22;38907;45.562;8.856;2023-11-19T22:16:24;7.30;99.90
51021;DHT22;38907;45.562;8.856;2023-11-19T22:21:26;7.40;99.90
51021;DHT22;38907;45.562;8.856;2023-11-19T22:26:29;7.30;99.90
51021;DHT22;38907;45.562;8.856;2023-11-19T22:31:32;7.60;99.90
51021;DHT22;38907;45.562;8.856;2023-11-19T22:36:35;7.40;99.90
51021;DHT22;38907;45.562;8.856;2023-11-19T22:41:38;7.00;99.90
51021;DHT22;38907;45.562;8.856;2023-11-19T22:46:40;7.10;99.90
51021;DHT22;38907;45.562;8.856;2023-11-19T22:51:42;7.30;99.90
51021;DHT22;38907;45.562;8.856;2023-11-19T22:56:45;7.10;99.90
51021;DHT22;38907;45.562;8.856;2023-11-19T23:01:47;7.00;99.90
51021;DHT22;38907;45.562;8.856;2023-11-19T23:06:49;7.00;99.90
51021;DHT22;38907;45.562;8.856;2023-11-19T23:11:52;7.00;99.90
51021;DHT22;38907;45.562;8.856;2023-11-19T23:16:54;7.30;99.90
51021;DHT22;38907;45.562;8.856;2023-11-19T23:21:56;7.10;99.90
51021;DHT22;38907;45.562;8.856;2023-11-19T23:26:59;7.00;99.90
51021;DHT22;38907;45.562;8.856;2023-11-19T23:32:01;7.10;99.90
51021;DHT22;38907;45.562;8.856;2023-11-19T23:37:05;7.10;99.90
51021;DHT22;38907;45.562;8.856;2023-11-19T23:42:08;7.00;99.90
51021;DHT22;38907;45.562;8.856;2023-11-19T23:47:10;7.10;99.90
51021;DHT22;38907;45.562;8.856;2023-11-19T23:52:12;7.10;99.90
51021;DHT22;38907;45.562;8.856;2023-11-19T23:57:15;7.00;99.90
